Scroll down
FLIGHT INFORMATION
Sky Gates Airlines

SAY1030

At Arrival Gate

EDDN
 EDDK
DATE: 2022-10-30
GATE:  -
GATE DEPARTURE: 23:59
TAKEOFF: 00:06
DATE: 2022-10-31
GATE:  -
LANDING: 00:41
GATE ARRIVAL: 00:48
FLIGHT DATA
Speed: 
898 kph
Altitude: 
7,317 m
Stage Length: 
318.7 km
Block Time: 
0.8 hrs
Flight Time: 
0.6 hrs
Fuel Used: 
7,298 kg
Cleared Route: EDDN IBAGA EDUDU OSBIT LOHRE BAMTO BOMBI FFM ASKIK TABUM DILUG GULKO EDDK
TRACK DATA
50,000 ft 1,000 kts
AIRCRAFT INFO AND CUMULATIVE STATS
Aircraft Type: 
B744F
Registration: 
SELCAL: 
MSN/LN: 
32571 / 1271
Operator: 
Total Flights: 
9
Total Block Time: 
17.4 hrs
Total Flight Time: 
15.5 hrs
Total Fuel Used: 
165,047 kg
DATALINK LOG | Newest first | Current as of: 2023-02-02 10:56:50
LABEL SEQUENCE CONTENT Dn/Up
QD495700:48 19.5▼ Dn
QC425000:41▼ Dn
2U2130EDDK 302350Z AUTO VRB01KT CAVOK 10/10 Q1021 NOSIG▲ Up
2S2130EDDK▼ Dn
2U2029EDDN 302350Z AUTO VRB01KT 2700 BR NCD 10/09 Q1022▲ Up
2U2029EDDK 302350Z AUTO VRB01KT CAVOK 10/10 Q1021 NOSIG▲ Up
2S2029EDDN EDDK▼ Dn
2U1524EDDN 302350Z AUTO VRB01KT 2700 BR NCD 10/09 Q1022▲ Up
2S1524EDDN▼ Dn
QB081700:06▼ Dn
QA000923:59 35.5▼ Dn
2U4758EKCH 302320Z 31004KT 2000 BR OVC005 13/13 Q1018 NOSIG▲ Up
2S4757EKCH▼ Dn
A34454CLEARED TO EDDK VIA IBAG2M IBAGA Y101 OSBIT L984 ASKIK T840 GULKO GULK32. SQUAWK 6745.▲ Up
B34454EDDN EDDK SAY1030 VP-BCI A ▼ Dn
Q04252[LINK ACK]▲ Up
Q04252[LINK TEST]▼ Dn


AIRCRAFT HISTORY
FLIGHT DATE FLIGHT NO. ORIGIN DESTINATION CLEARED ROUTE BLOCK TIME FLIGHT TIME FUEL USED PILOT
2022-10-30SAY1030EDDN EDDK EDDN IBAGA EDUDU OSBIT LOHRE BAMTO BOMBI FFM ASKIK TABUM DILUG GULKO EDDK0.8 hrs0.6 hrs16,090 lbRobert S. Randazzo
2022-02-18SAY217EKCH EDDN EKCH SIMEG BALOX SALLO PEROM BAKDO TIMIB INDOK BIRMO SUVAL SOGMA BUREL UBIGI LODRO MAG BARAP GALMA SUVUT RELKO TABAT KULOK BAROB NIBIL EDDN1.5 hrs1.1 hrs29,217 lbZsolt Szivak
2022-01-19SAY119ENGM EKCH ENGM OKSAT GETPA KORET LATKU KELIN TOPLA ATRIB ERNOV EKCH0.9 hrs0.8 hrs20,190 lbRobin Oeverby
2020-08-15SAY815EDDS ENGM EDDS OKIBA ROLSO RIMKI LOHRE ARNIX FUL MASEK KEMAD PIBUL MEGAR SABAK XENTA REGMA LUNIP ENGM2 hrs1.9 hrs45,149 lbEphedrin
2020-07-25SAY725UUEE EDDS UUEE BG TU SUPEK TEGLU LEGSI BENIM RAMBE LAFAT UPASI VABER SUW KULEK MAGAN IDEXU GOVEN BUKIG KOBUS BEBKU PIKIB ABKIS NOKSI PEROX NURGO URONA UNAVI KULOK ERETO ANELA KEGOS AMOSA ODEGU DKB GEBNO EDDS3 hrs2.8 hrs62,392 lbEphedrin
2020-03-14SAY306LIRF UUEE LIRF TIBER INTUD GOTMO IBENI IPKIS KOPRY SUNOR DEMOP PODAN ODRAP USTIL AMIRI PNK OGARA TAZIP DELON NASKA REKTA DEDOK SODKO ABKOM PASUD MOSON KOMOG RUBAG GUBON FK UUEE3.1 hrs2.8 hrs74,216 lbRobert S. Randazzo
2019-03-18SAY317ESSA LIRF ESSA NOSLI TONSA ABAMA MOKNI NEMBA DEKIK ETPIG ELVIX BIKRU RAKIT MAREM PEMEL RUDAP BARIX BAMTA DEGIN DOSEL TULSI BERAS MIMVI LIZUM LIKDA VESAL GAVRA RITEB LIRF3.3 hrs3 hrs60,302 lbAaron Buchanan
2019-03-13SAY312EFHK ESSA EFHK ADIVO PEPIG POGOK RUNGA XILAN ESSA1 hrs0.8 hrs18,577 lbAaron Buchanan
2019-03-03SAY302UUDD EFHK UUDD LO GOTMA ARSEP UM AR BELAG OLIDI GAPSA ROMEL KUDIM GUBIT PIKAM ATBUR ORTOK NOTAR SUMIM ULKOX BIRSI LEMLA GEPTA INTOR EFHK1.8 hrs1.7 hrs37,734 lbAaron Buchanan